Time;durP1;ratioP1;P1;durP2;ratioP2;P2;SDS_P1;SDS_P2;PMS_P1;PMS_P2;Temp;Humidity;BMP_temperature;BMP_pressure;BME280_temperature;BME280_humidity;BME280_pressure;Samples;Min_cycle;Max_cycle;Signal;HPM_P1;HPM_P2
2024/02/24 00:01:59;;;;;;;;;;;;;;;11.07;53.52;99093.72;4926489;28;97740;-67
2024/02/24 00:04:26;;;;;;;;;;;;;;;11.08;53.70;99094.50;4908324;28;100263;-67
2024/02/24 00:06:52;;;;;;;;;;;;;;;11.07;53.76;99099.09;4925193;28;98620;-72
2024/02/24 00:09:18;;;;;;;;;;;;;;;11.05;53.64;99098.63;4925980;28;105133;-72
2024/02/24 00:11:44;;;;;;;;;;;;;;;11.05;53.32;99087.84;4910187;28;98266;-72
2024/02/24 00:14:10;;;;;;;;;;;;;;;11.05;53.43;99089.72;4919839;28;108580;-67
2024/02/24 00:16:36;;;;;;;;;;;;;;;11.05;53.39;99093.22;4907897;28;98154;-71
2024/02/24 00:19:02;;;;;;;;;;;;;;;11.05;53.73;99087.84;4937480;28;98419;-67
2024/02/24 00:21:28;;;;;;;;;;;;;;;11.05;53.73;99087.03;4915632;28;98198;-67
2024/02/24 00:23:54;;;;;;;;;;;;;;;11.04;53.62;99086.25;4918229;28;97973;-72
2024/02/24 00:26:20;;;;;;;;;;;;;;;11.05;53.53;99085.13;4920691;28;103005;-72
2024/02/24 00:28:46;;;;;;;;;;;;;;;11.05;53.65;99081.66;4905900;28;124211;-67
2024/02/24 00:31:12;;;;;;;;;;;;;;;11.04;53.50;99075.47;4917745;28;123259;-67
2024/02/24 00:33:39;;;;;;;;;;;;;;;11.04;53.67;99072.75;4918766;28;98300;-72
2024/02/24 00:36:05;;;;;;;;;;;;;;;11.05;53.48;99077.03;4933962;28;118302;-71
2024/02/24 00:38:31;;;;;;;;;;;;;;;11.04;53.59;99083.56;4919894;28;97920;-72
2024/02/24 00:40:57;;;;;;;;;;;;;;;11.05;53.40;99076.25;4928697;28;122561;-72
2024/02/24 00:43:23;;;;;;;;;;;;;;;11.03;53.35;99076.53;4929751;28;99452;-67
2024/02/24 00:45:49;;;;;;;;;;;;;;;11.04;53.67;99077.34;4922612;28;102089;-72
2024/02/24 00:48:16;;;;;;;;;;;;;;;11.04;53.56;99070.06;4918795;28;98470;-72
2024/02/24 00:50:42;;;;;;;;;;;;;;;11.03;53.50;99078.44;4908255;28;98063;-68
2024/02/24 00:53:08;;;;;;;;;;;;;;;11.04;53.30;99080.84;4921026;28;98258;-72
2024/02/24 00:55:33;;;;;;;;;;;;;;;11.03;53.69;99083.84;4902803;28;98240;-72
2024/02/24 00:57:59;;;;;;;;;;;;;;;11.03;53.48;99086.53;4912776;28;128287;-72
2024/02/24 01:00:25;;;;;;;;;;;;;;;11.01;53.33;99076.06;4902020;28;98250;-67
2024/02/24 01:02:53;;;;;;;;;;;;;;;11.03;53.65;99084.63;4921555;28;99221;-67
2024/02/24 01:05:19;;;;;;;;;;;;;;;11.01;53.36;99084.16;4909803;28;98429;-72
2024/02/24 01:07:45;;;;;;;;;;;;;;;11.01;53.44;99084.16;4925130;28;121963;-67
2024/02/24 01:10:11;;;;;;;;;;;;;;;11.01;53.59;99088.75;4919149;28;98021;-72
2024/02/24 01:12:37;;;;;;;;;;;;;;;11.01;53.69;99091.44;4922738;28;100816;-67
2024/02/24 01:15:03;;;;;;;;;;;;;;;11.00;53.68;99090.66;4906230;28;98870;-72
2024/02/24 01:17:29;;;;;;;;;;;;;;;11.00;53.56;99079.88;4938561;28;97938;-72
2024/02/24 01:19:55;;;;;;;;;;;;;;;11.00;53.65;99092.53;4922720;28;114396;-67
2024/02/24 01:22:21;;;;;;;;;;;;;;;10.99;53.47;99086.34;4924272;28;100147;-67
2024/02/24 01:24:47;;;;;;;;;;;;;;;10.99;53.46;99085.53;4907284;28;123675;-72
2024/02/24 01:27:13;;;;;;;;;;;;;;;10.99;53.33;99085.53;4927851;28;122273;-72
2024/02/24 01:29:39;;;;;;;;;;;;;;;10.99;53.79;99080.16;4905798;28;98452;-72
2024/02/24 01:32:05;;;;;;;;;;;;;;;10.98;53.29;99081.25;4920048;28;124558;-67
2024/02/24 01:34:31;;;;;;;;;;;;;;;10.97;53.67;99075.06;4901028;28;119829;-72
2024/02/24 01:36:57;;;;;;;;;;;;;;;10.97;53.46;99072.38;4906540;28;98730;-67
2024/02/24 01:39:23;;;;;;;;;;;;;;;10.96;53.51;99062.66;4903570;28;98409;-72
2024/02/24 01:41:49;;;;;;;;;;;;;;;10.97;53.64;99071.59;4917286;28;129864;-72
2024/02/24 01:44:18;;;;;;;;;;;;;;;10.96;53.52;99069.97;4905122;28;127189;-72
2024/02/24 01:46:45;;;;;;;;;;;;;;;10.95;53.35;99069.16;4919359;28;98980;-72
2024/02/24 01:49:12;;;;;;;;;;;;;;;10.94;53.27;99070.28;4907394;28;98463;-72
2024/02/24 01:51:37;;;;;;;;;;;;;;;10.94;53.32;99078.38;4901429;28;98255;-67
2024/02/24 01:54:03;;;;;;;;;;;;;;;10.93;53.42;99073.28;4905198;28;111074;-72
2024/02/24 01:56:31;;;;;;;;;;;;;;;10.92;53.66;99075.16;4924061;28;98038;-67
2024/02/24 01:58:58;;;;;;;;;;;;;;;10.92;53.41;99077.06;4906763;28;97830;-72
2024/02/24 02:01:25;;;;;;;;;;;;;;;10.91;53.64;99078.16;4925419;28;98304;-67
2024/02/24 02:03:52;;;;;;;;;;;;;;;10.89;53.30;99073.09;4908642;28;100247;-72
2024/02/24 02:06:18;;;;;;;;;;;;;;;10.88;53.15;99076.88;4920572;28;98335;-72
2024/02/24 02:08:44;;;;;;;;;;;;;;;10.87;53.65;99072.59;4939958;28;97954;-72
2024/02/24 02:11:10;;;;;;;;;;;;;;;10.86;53.33;99076.38;4921483;28;98143;-72
2024/02/24 02:13:37;;;;;;;;;;;;;;;10.85;53.32;99076.69;4905591;28;98064;-67
2024/02/24 02:16:04;;;;;;;;;;;;;;;10.84;53.51;99075.09;4915218;28;130226;-67
2024/02/24 02:18:30;;;;;;;;;;;;;;;10.82;53.47;99078.09;4907040;28;102354;-72
2024/02/24 02:20:55;;;;;;;;;;;;;;;10.82;53.82;99075.41;4922966;28;105317;-67
2024/02/24 02:23:22;;;;;;;;;;;;;;;10.80;53.37;99081.06;4919963;28;128651;-67
2024/02/24 02:25:49;;;;;;;;;;;;;;;10.78;53.73;99069.81;4940179;28;98493;-72
2024/02/24 02:28:15;;;;;;;;;;;;;;;10.79;53.39;99084.06;4907111;28;98167;-72
2024/02/24 02:30:41;;;;;;;;;;;;;;;10.76;53.68;99082.78;4921829;28;98080;-67
2024/02/24 02:33:08;;;;;;;;;;;;;;;10.74;53.35;99086.88;4918157;28;98103;-72
2024/02/24 02:35:34;;;;;;;;;;;;;;;10.73;53.64;99086.09;4901240;28;98226;-72
2024/02/24 02:38:01;;;;;;;;;;;;;;;10.72;53.70;99089.06;4908916;28;99794;-72
2024/02/24 02:40:27;;;;;;;;;;;;;;;10.70;53.47;99083.19;4935715;28;98187;-67
2024/02/24 02:42:53;;;;;;;;;;;;;;;10.69;53.82;99084.28;4904226;28;98263;-72
2024/02/24 02:45:19;;;;;;;;;;;;;;;10.67;53.40;99084.59;4907394;28;126989;-71
2024/02/24 02:47:45;;;;;;;;;;;;;;;10.66;53.40;99084.91;4903194;28;107619;-73
2024/02/24 02:50:11;;;;;;;;;;;;;;;10.64;53.73;99087.09;4907748;28;117920;-72
2024/02/24 02:52:37;;;;;;;;;;;;;;;10.63;53.68;99080.91;4915737;28;99689;-72
2024/02/24 02:55:04;;;;;;;;;;;;;;;10.61;53.47;99083.13;4919224;28;107095;-67
2024/02/24 02:57:30;;;;;;;;;;;;;;;10.60;53.69;99088.78;4923842;28;98057;-70
2024/02/24 02:59:57;;;;;;;;;;;;;;;10.58;53.41;99097.19;4907371;28;98040;-67
2024/02/24 03:02:23;;;;;;;;;;;;;;;10.56;53.66;99104.75;4920446;28;100252;-67
2024/02/24 03:04:49;;;;;;;;;;;;;;;10.53;53.41;99106.16;4933347;28;98383;-67
2024/02/24 03:07:15;;;;;;;;;;;;;;;10.49;53.59;99102.47;4921519;28;98887;-67
2024/02/24 03:09:47;;;;;;;;;;;;;;;10.46;53.37;99113.84;4915990;28;129015;-67
2024/02/24 03:12:14;;;;;;;;;;;;;;;10.43;53.77;99113.66;4902296;28;99728;-67
2024/02/24 03:14:43;;;;;;;;;;;;;;;10.39;53.38;99110.75;4903485;28;98628;-67
2024/02/24 03:17:23;;;;;;;;;;;;;;;10.35;53.42;99117.81;5055175;27;98183;-67
2024/02/24 03:19:49;;;;;;;;;;;;;;;10.32;53.54;99110.34;5037522;27;99571;-71
2024/02/24 03:22:15;;;;;;;;;;;;;;;10.29;53.57;99110.91;5018278;27;128982;-68
2024/02/24 03:24:42;;;;;;;;;;;;;;;10.28;53.50;99117.41;5024868;27;108059;-72
2024/02/24 03:27:09;;;;;;;;;;;;;;;10.26;53.42;99125.00;5003419;27;99660;-67
2024/02/24 03:29:35;;;;;;;;;;;;;;;10.23;53.58;99122.88;5025022;27;97959;-68
2024/02/24 03:32:02;;;;;;;;;;;;;;;10.21;53.55;99119.66;4999985;27;98032;-67
2024/02/24 03:34:28;;;;;;;;;;;;;;;10.20;53.28;99120.75;5014832;27;100521;-67
2024/02/24 03:36:55;;;;;;;;;;;;;;;10.16;53.63;99120.56;5000504;27;98122;-68
2024/02/24 03:39:23;;;;;;;;;;;;;;;10.15;53.53;99120.88;5009438;27;99082;-67
2024/02/24 03:41:50;;;;;;;;;;;;;;;10.13;53.64;99118.44;5001422;27;98367;-67
2024/02/24 03:44:17;;;;;;;;;;;;;;;10.11;53.49;99117.97;5009585;27;98140;-72
2024/02/24 03:46:42;;;;;;;;;;;;;;;10.09;53.76;99106.69;5021324;27;98353;-72
2024/02/24 03:49:08;;;;;;;;;;;;;;;10.08;53.37;99115.84;5001842;27;110305;-72
2024/02/24 03:51:34;;;;;;;;;;;;;;;10.05;53.41;99105.66;5000862;27;98370;-67
2024/02/24 03:54:01;;;;;;;;;;;;;;;10.03;53.67;99111.38;5033790;27;98831;-72
2024/02/24 03:56:27;;;;;;;;;;;;;;;10.02;53.68;99111.66;5021232;27;98013;-72
2024/02/24 03:58:53;;;;;;;;;;;;;;;10.01;53.64;99123.50;4999609;27;100808;-72
2024/02/24 04:01:19;;;;;;;;;;;;;;;9.99;53.38;99117.66;4998707;27;98678;-67
2024/02/24 04:03:45;;;;;;;;;;;;;;;9.97;53.42;99122.50;5005756;27;99561;-67
2024/02/24 04:06:12;;;;;;;;;;;;;;;9.95;53.83;99120.13;5018217;27;98015;-67
2024/02/24 04:08:38;;;;;;;;;;;;;;;9.95;53.32;99130.09;5008297;27;98205;-67
2024/02/24 04:11:04;;;;;;;;;;;;;;;9.92;53.44;99123.41;5000463;27;98329;-67
2024/02/24 04:13:30;;;;;;;;;;;;;;;9.92;53.23;99128.78;5019056;27;98285;-67
2024/02/24 04:15:56;;;;;;;;;;;;;;;9.91;53.32;99131.78;5005993;27;120978;-72
2024/02/24 04:18:22;;;;;;;;;;;;;;;9.90;53.34;99133.66;5017488;27;112275;-72
2024/02/24 04:20:48;;;;;;;;;;;;;;;9.90;53.32;99138.22;5006579;27;101951;-68
2024/02/24 04:23:15;;;;;;;;;;;;;;;9.88;53.44;99130.47;5005970;27;98723;-72
2024/02/24 04:25:41;;;;;;;;;;;;;;;9.87;53.49;99138.84;5000213;27;97828;-72
2024/02/24 04:28:07;;;;;;;;;;;;;;;9.86;53.65;99134.53;4992648;27;98022;-72
2024/02/24 04:30:35;;;;;;;;;;;;;;;9.84;53.76;99138.31;5004508;27;98485;-67
2024/02/24 04:33:01;;;;;;;;;;;;;;;9.83;53.32;99133.25;4987691;27;97907;-67
2024/02/24 04:35:27;;;;;;;;;;;;;;;9.81;53.32;99130.03;4950371;27;104443;-67
2024/02/24 04:37:53;;;;;;;;;;;;;;;9.80;53.31;99136.53;4955622;28;97855;-67
2024/02/24 04:40:19;;;;;;;;;;;;;;;9.78;53.45;99139.50;4967485;27;129264;-68
2024/02/24 04:42:46;;;;;;;;;;;;;;;9.77;53.57;99145.19;4962514;28;100112;-67
2024/02/24 04:45:12;;;;;;;;;;;;;;;9.76;53.72;99151.66;4967905;27;98390;-67
2024/02/24 04:47:38;;;;;;;;;;;;;;;9.75;53.49;99156.25;4971946;27;99222;-67
2024/02/24 04:50:05;;;;;;;;;;;;;;;9.73;53.64;99160.31;4967321;27;98860;-67
2024/02/24 04:52:31;;;;;;;;;;;;;;;9.71;53.17;99155.22;4965180;27;99305;-72
2024/02/24 04:54:57;;;;;;;;;;;;;;;9.71;53.53;99151.75;4980885;27;98601;-72
2024/02/24 04:57:23;;;;;;;;;;;;;;;9.68;52.96;99150.44;4948106;27;99898;-67
2024/02/24 04:59:49;;;;;;;;;;;;;;;9.68;53.64;99161.19;4968188;28;98746;-67
2024/02/24 05:02:15;;;;;;;;;;;;;;;9.67;53.29;99162.28;4962646;28;106036;-72
2024/02/24 05:04:41;;;;;;;;;;;;;;;9.65;53.25;99167.16;4956935;27;98871;-72
2024/02/24 05:07:07;;;;;;;;;;;;;;;9.64;53.67;99172.84;4963785;28;98144;-72
2024/02/24 05:09:34;;;;;;;;;;;;;;;9.62;53.42;99181.19;4961160;27;112677;-72
2024/02/24 05:12:00;;;;;;;;;;;;;;;9.61;53.60;99186.88;4964470;28;98414;-72
2024/02/24 05:14:26;;;;;;;;;;;;;;;9.59;53.13;99185.28;4964156;27;98146;-67
2024/02/24 05:16:53;;;;;;;;;;;;;;;9.58;53.31;99180.97;4949875;27;97887;-67
2024/02/24 05:19:19;;;;;;;;;;;;;;;9.56;53.36;99179.66;4965720;27;98482;-67
2024/02/24 05:21:45;;;;;;;;;;;;;;;9.55;53.24;99180.78;4963197;27;129403;-67
2024/02/24 05:24:11;;;;;;;;;;;;;;;9.54;53.73;99179.16;4955364;28;98788;-72
2024/02/24 05:26:37;;;;;;;;;;;;;;;9.53;53.35;99182.94;4958302;27;98304;-72
2024/02/24 05:29:03;;;;;;;;;;;;;;;9.50;53.14;99178.94;4962868;27;99723;-67
2024/02/24 05:31:29;;;;;;;;;;;;;;;9.49;53.41;99184.59;4950348;27;98014;-67
2024/02/24 05:33:55;;;;;;;;;;;;;;;9.49;53.73;99188.09;4964480;28;98724;-68
2024/02/24 05:36:21;;;;;;;;;;;;;;;9.55;53.38;99186.16;4960999;27;98599;-68
2024/02/24 05:38:48;;;;;;;;;;;;;;;9.59;53.25;99187.97;4946947;27;98228;-72
2024/02/24 05:41:14;;;;;;;;;;;;;;;9.65;53.50;99194.06;4967513;27;98170;-68
2024/02/24 05:43:40;;;;;;;;;;;;;;;9.68;53.52;99195.38;4947249;27;99167;-68
2024/02/24 05:46:06;;;;;;;;;;;;;;;9.70;53.36;99193.97;4965707;28;98178;-72
2024/02/24 05:48:38;;;;;;;;;;;;;;;9.73;53.27;99196.09;4967176;27;98164;-72
2024/02/24 05:51:09;;;;;;;;;;;;;;;9.75;53.88;99190.44;4942582;28;98283;-73
2024/02/24 05:53:36;;;;;;;;;;;;;;;9.76;52.98;99197.41;4964880;27;98796;-68
2024/02/24 05:56:02;;;;;;;;;;;;;;;9.76;53.71;99198.19;4947163;28;98158;-67
2024/02/24 05:58:28;;;;;;;;;;;;;;;9.76;53.78;99208.16;4965842;27;98952;-68
2024/02/24 06:00:54;;;;;;;;;;;;;;;9.76;53.39;99200.91;4945658;27;98173;-72
2024/02/24 06:03:22;;;;;;;;;;;;;;;9.75;53.63;99207.38;4974602;27;128168;-73
2024/02/24 06:05:49;;;;;;;;;;;;;;;9.76;53.38;99222.41;4946805;27;98428;-68
2024/02/24 06:08:16;;;;;;;;;;;;;;;9.77;53.36;99221.31;4979610;27;98302;-67
2024/02/24 06:10:42;;;;;;;;;;;;;;;9.76;53.29;99227.00;4962723;27;97862;-73
2024/02/24 06:13:08;;;;;;;;;;;;;;;9.77;53.91;99231.28;4933186;27;127678;-68
2024/02/24 06:15:34;;;;;;;;;;;;;;;9.76;53.10;99225.13;4965145;27;98109;-72
2024/02/24 06:18:00;;;;;;;;;;;;;;;9.76;53.67;99225.13;4944864;27;99375;-73
2024/02/24 06:20:26;;;;;;;;;;;;;;;9.76;53.38;99232.41;4967619;27;99889;-73
2024/02/24 06:22:53;;;;;;;;;;;;;;;9.77;53.05;99225.91;4947139;27;98235;-73
2024/02/24 06:25:18;;;;;;;;;;;;;;;9.77;53.85;99226.69;4946517;27;99499;-73
2024/02/24 06:27:44;;;;;;;;;;;;;;;9.77;53.77;99231.28;4949282;27;108156;-68
2024/02/24 06:30:11;;;;;;;;;;;;;;;9.78;53.27;99231.00;4949721;27;106355;-73
2024/02/24 06:32:37;;;;;;;;;;;;;;;9.77;53.44;99237.47;4957706;27;105250;-72
2024/02/24 06:35:03;;;;;;;;;;;;;;;9.76;53.65;99235.88;4940138;27;111771;-72
2024/02/24 06:37:29;;;;;;;;;;;;;;;9.76;53.22;99235.09;4976680;27;114630;-67
2024/02/24 06:39:55;;;;;;;;;;;;;;;9.76;53.10;99241.25;4955644;27;98276;-67
2024/02/24 06:42:21;;;;;;;;;;;;;;;9.75;53.65;99245.06;4959247;28;97919;-67
2024/02/24 06:44:47;;;;;;;;;;;;;;;9.74;53.27;99240.75;4961207;27;110858;-68
2024/02/24 06:47:13;;;;;;;;;;;;;;;9.74;53.56;99242.63;4943886;27;98231;-67
2024/02/24 06:49:39;;;;;;;;;;;;;;;9.74;53.63;99248.81;4945069;27;98128;-72
2024/02/24 06:52:05;;;;;;;;;;;;;;;9.74;53.12;99239.94;4939789;27;117925;-73
2024/02/24 06:54:32;;;;;;;;;;;;;;;9.75;53.39;99236.19;4938205;27;98352;-67
2024/02/24 06:56:58;;;;;;;;;;;;;;;9.75;53.92;99244.25;4954788;27;98607;-67
2024/02/24 06:59:24;;;;;;;;;;;;;;;9.78;53.03;99243.66;4957690;27;98667;-67
2024/02/24 07:01:51;;;;;;;;;;;;;;;9.77;53.42;99245.53;4957431;27;99362;-67
2024/02/24 07:04:17;;;;;;;;;;;;;;;9.81;53.20;99254.63;4962472;27;98620;-72
2024/02/24 07:06:43;;;;;;;;;;;;;;;9.87;53.62;99254.59;4958255;27;118340;-72
2024/02/24 07:09:09;;;;;;;;;;;;;;;9.91;53.37;99260.97;4959040;27;98397;-72
2024/02/24 07:11:36;;;;;;;;;;;;;;;9.95;52.72;99259.31;4935924;27;98313;-67
2024/02/24 07:14:02;;;;;;;;;;;;;;;10.02;52.91;99271.31;4963791;27;98365;-73
2024/02/24 07:16:28;;;;;;;;;;;;;;;10.09;53.30;99277.09;4952540;27;130618;-73
2024/02/24 07:18:54;;;;;;;;;;;;;;;10.18;53.01;99274.56;4954872;27;100553;-68
2024/02/24 07:21:20;;;;;;;;;;;;;;;10.29;52.83;99267.94;4969424;27;98856;-67
2024/02/24 07:23:47;;;;;;;;;;;;;;;10.44;52.78;99274.19;4940957;27;99100;-67
2024/02/24 07:26:13;;;;;;;;;;;;;;;10.59;52.71;99284.69;4961805;27;98287;-72
2024/02/24 07:28:40;;;;;;;;;;;;;;;10.77;52.85;99288.44;4955665;27;120882;-73
2024/02/24 07:31:06;;;;;;;;;;;;;;;10.96;52.30;99291.06;4950588;27;98209;-73
2024/02/24 07:33:32;;;;;;;;;;;;;;;11.19;52.25;99287.38;4957494;27;114209;-73
2024/02/24 07:35:58;;;;;;;;;;;;;;;11.47;51.95;99290.06;4926943;27;98213;-73
2024/02/24 07:38:24;;;;;;;;;;;;;;;11.72;51.71;99286.06;4969352;27;119580;-67
2024/02/24 07:40:50;;;;;;;;;;;;;;;12.01;51.54;99286.50;4943753;27;99573;-73
2024/02/24 07:43:16;;;;;;;;;;;;;;;12.24;51.47;99290.00;4946908;27;114735;-68
2024/02/24 07:45:43;;;;;;;;;;;;;;;12.50;51.26;99298.31;4938191;27;98735;-68
2024/02/24 07:48:09;;;;;;;;;;;;;;;12.75;51.06;99296.88;4971225;27;99019;-73
2024/02/24 07:50:35;;;;;;;;;;;;;;;13.13;50.80;99301.06;4944619;27;103476;-74
2024/02/24 07:53:03;;;;;;;;;;;;;;;13.40;50.52;99300.03;4955471;27;98245;-73
2024/02/24 07:55:30;;;;;;;;;;;;;;;13.67;50.61;99299.00;4955677;27;98705;-73
2024/02/24 07:57:57;;;;;;;;;;;;;;;14.00;50.24;99307.50;4957512;27;103406;-73
2024/02/24 08:00:24;;;;;;;;;;;;;;;14.34;50.28;99306.69;4937892;27;98209;-68
2024/02/24 08:02:50;;;;;;;;;;;;;;;14.81;49.77;99306.81;4958985;27;99425;-73
2024/02/24 08:05:18;;;;;;;;;;;;;;;15.26;49.62;99305.56;4943113;27;98643;-69
2024/02/24 08:07:45;;;;;;;;;;;;;;;15.84;49.35;99314.88;4946351;27;98300;-69
2024/02/24 08:10:12;;;;;;;;;;;;;;;16.65;48.77;99314.34;4945049;27;98394;-70
2024/02/24 08:12:38;;;;;;;;;;;;;;;17.51;48.17;99322.69;4944678;27;99723;-69
2024/02/24 08:15:05;;;;;;;;;;;;;;;18.45;47.50;99318.09;4962874;27;99002;-69
2024/02/24 08:17:31;;;;;;;;;;;;;;;19.84;46.72;99322.41;4928525;27;98191;-69
2024/02/24 08:19:58;;;;;;;;;;;;;;;21.30;45.73;99332.75;4956605;27;98101;-69
2024/02/24 08:22:25;;;;;;;;;;;;;;;22.12;45.49;99337.88;4945539;27;98364;-69
2024/02/24 08:24:51;;;;;;;;;;;;;;;22.75;45.80;99348.09;4961810;27;100149;-70
2024/02/24 08:27:19;;;;;;;;;;;;;;;23.63;45.26;99338.31;4943203;27;98151;-70
2024/02/24 08:29:46;;;;;;;;;;;;;;;24.41;45.29;99338.81;4952592;27;104451;-70
2024/02/24 08:32:12;;;;;;;;;;;;;;;25.48;44.85;99341.00;4967612;27;97991;-71
2024/02/24 08:34:39;;;;;;;;;;;;;;;26.57;44.35;99349.47;4963697;27;98231;-74
2024/02/24 08:37:06;;;;;;;;;;;;;;;28.00;43.98;99351.19;4979075;27;98756;-71
2024/02/24 08:39:33;;;;;;;;;;;;;;;28.72;43.93;99342.81;4983107;27;98160;-71
2024/02/24 08:42:01;;;;;;;;;;;;;;;29.71;43.41;99338.94;4968135;27;98138;-71
2024/02/24 08:44:28;;;;;;;;;;;;;;;30.85;43.08;99347.81;4982267;27;98143;-75
2024/02/24 08:46:55;;;;;;;;;;;;;;;31.81;42.65;99336.34;4980480;27;98156;-70
2024/02/24 08:49:21;;;;;;;;;;;;;;;32.46;43.09;99335.38;4985499;27;98313;-70
2024/02/24 08:51:48;;;;;;;;;;;;;;;33.35;42.37;99329.03;4964848;27;99392;-74
2024/02/24 08:54:20;;;;;;;;;;;;;;;34.23;42.53;99332.75;4931190;27;97967;-70
2024/02/24 08:56:46;;;;;;;;;;;;;;;35.13;42.00;99339.31;4953200;27;98268;-73
2024/02/24 08:59:13;;;;;;;;;;;;;;;35.90;42.20;99344.13;4966051;27;97996;-74
2024/02/24 09:01:40;;;;;;;;;;;;;;;36.44;41.99;99345.34;4951662;27;98363;-70
2024/02/24 09:04:06;;;;;;;;;;;;;;;37.21;41.96;99356.13;4965861;27;98534;-70
2024/02/24 09:06:35;;;;;;;;;;;;;;;38.11;41.65;99351.63;4961756;27;98611;-74
2024/02/24 09:09:14;;;;;;;;;;;;;;;38.46;41.72;99341.28;4976811;27;98338;-70
2024/02/24 09:11:42;;;;;;;;;;;;;;;38.69;42.02;99342.44;4976669;27;98384;-74
2024/02/24 09:14:09;;;;;;;;;;;;;;;38.97;42.13;99344.94;4980354;27;100107;-70
2024/02/24 09:16:36;;;;;;;;;;;;;;;39.31;42.11;99346.22;4980319;27;98172;-70
2024/02/24 09:19:02;;;;;;;;;;;;;;;39.59;42.41;99349.41;4975807;27;98011;-70
2024/02/24 09:21:30;;;;;;;;;;;;;;;40.02;42.39;99355.31;4980273;27;98132;-74
2024/02/24 09:23:57;;;;;;;;;;;;;;;40.54;42.05;99363.00;4963475;27;98605;-74
2024/02/24 09:26:24;;;;;;;;;;;;;;;40.90;42.21;99355.84;4967724;27;100041;-70
2024/02/24 09:28:51;;;;;;;;;;;;;;;41.07;42.25;99356.00;4945289;27;99115;-71
2024/02/24 09:31:20;;;;;;;;;;;;;;;40.94;42.35;99359.22;4968764;27;98905;-70
2024/02/24 09:33:55;;;;;;;;;;;;;;;40.98;42.69;99356.97;4963469;27;98523;-70
2024/02/24 09:36:22;;;;;;;;;;;;;;;41.19;42.58;99366.09;4994734;27;98095;-74
2024/02/24 09:38:50;;;;;;;;;;;;;;;41.60;42.32;99362.97;4961098;27;98211;-71
2024/02/24 09:41:19;;;;;;;;;;;;;;;42.46;41.87;99362.72;4952289;27;98449;-75
2024/02/24 09:43:47;;;;;;;;;;;;;;;43.76;40.76;99361.97;4999979;27;100320;-75
2024/02/24 09:46:14;;;;;;;;;;;;;;;45.02;39.83;99364.97;5003952;27;97995;-71
2024/02/24 09:48:42;;;;;;;;;;;;;;;46.04;39.00;99356.00;4994433;27;98977;-71
2024/02/24 09:51:10;;;;;;;;;;;;;;;46.57;38.49;99349.75;4997332;27;98260;-72
2024/02/24 09:53:39;;;;;;;;;;;;;;;47.07;38.08;99337.50;5015131;27;101131;-75
2024/02/24 09:56:09;;;;;;;;;;;;;;;47.28;38.68;99336.81;5015490;27;98387;-71
2024/02/24 09:58:40;;;;;;;;;;;;;;;47.31;38.90;99327.94;4998438;27;98396;-72
2024/02/24 10:01:07;;;;;;;;;;;;;;;47.52;39.00;99333.75;5016651;27;98181;-75
2024/02/24 10:03:34;;;;;;;;;;;;;;;48.18;38.59;99333.56;5019025;27;98273;-73
2024/02/24 10:06:02;;;;;;;;;;;;;;;49.05;38.04;99343.84;5001897;27;98138;-72
2024/02/24 10:08:30;;;;;;;;;;;;;;;49.87;37.37;99349.03;5016716;27;98155;-72
2024/02/24 10:10:56;;;;;;;;;;;;;;;50.56;36.98;99349.94;5010365;27;99297;-75
2024/02/24 10:13:25;;;;;;;;;;;;;;;51.05;37.26;99348.75;5004140;27;98874;-75
2024/02/24 10:15:53;;;;;;;;;;;;;;;51.48;37.03;99351.88;5012079;27;98473;-73
2024/02/24 10:18:21;;;;;;;;;;;;;;;52.02;36.35;99347.44;5000441;27;98422;-73
2024/02/24 10:20:48;;;;;;;;;;;;;;;53.06;35.85;99352.75;5015160;27;98357;-72
2024/02/24 10:23:16;;;;;;;;;;;;;;;53.75;35.33;99354.81;5021360;27;98239;-74
2024/02/24 10:25:43;;;;;;;;;;;;;;;53.90;35.68;99351.75;5012973;27;98435;-74
2024/02/24 10:28:12;;;;;;;;;;;;;;;53.50;36.18;99345.56;4998382;27;98081;-72
2024/02/24 10:30:40;;;;;;;;;;;;;;;51.25;37.95;99334.75;4964706;27;98234;-73
2024/02/24 10:33:08;;;;;;;;;;;;;;;51.25;38.07;99338.41;5016045;27;98269;-74
2024/02/24 10:35:35;;;;;;;;;;;;;;;52.27;36.56;99346.72;5009382;27;98290;-71
2024/02/24 10:38:02;;;;;;;;;;;;;;;48.35;40.44;99336.03;4998938;27;98060;-71
2024/02/24 10:40:30;;;;;;;;;;;;;;;46.40;41.73;99339.41;4999172;27;98436;-74
2024/02/24 10:42:56;;;;;;;;;;;;;;;43.83;44.02;99337.97;4999348;27;98134;-73
2024/02/24 10:45:22;;;;;;;;;;;;;;;41.68;45.63;99341.41;5008645;27;98433;-73
2024/02/24 10:47:49;;;;;;;;;;;;;;;39.88;46.66;99340.00;4998425;27;98314;-74
2024/02/24 10:50:16;;;;;;;;;;;;;;;38.29;47.44;99340.22;4996815;27;98437;-69
2024/02/24 10:52:43;;;;;;;;;;;;;;;36.85;48.68;99341.00;4984713;27;98144;-69
2024/02/24 10:55:10;;;;;;;;;;;;;;;35.54;49.21;99348.47;5012414;27;98421;-73
2024/02/24 10:57:37;;;;;;;;;;;;;;;34.36;49.22;99349.50;5015225;27;98372;-71
2024/02/24 11:00:23;;;;;;;;;;;;;;;33.34;49.63;99350.59;4996035;27;98449;-74
2024/02/24 11:02:52;;;;;;;;;;;;;;;32.46;49.68;99350.13;5004389;27;98412;-71
2024/02/24 11:05:19;;;;;;;;;;;;;;;31.89;50.05;99362.03;4997045;27;98591;-70
2024/02/24 11:07:47;;;;;;;;;;;;;;;31.20;49.81;99360.09;5012960;27;98348;-73
2024/02/24 11:10:18;;;;;;;;;;;;;;;30.69;50.12;99361.63;4968881;27;98252;-71
2024/02/24 11:12:52;;;;;;;;;;;;;;;30.17;50.10;99367.88;4995790;27;99346;-70
2024/02/24 11:15:19;;;;;;;;;;;;;;;31.50;47.57;99370.13;4984117;27;98257;-74
2024/02/24 11:17:51;;;;;;;;;;;;;;;32.02;47.18;99366.41;5010134;27;99079;-74
2024/02/24 11:20:42;;;;;;;;;;;;;;;32.06;46.88;99373.91;4998062;27;98370;-71
2024/02/24 11:23:31;;;;;;;;;;;;;;;32.08;46.67;99375.03;5027491;27;98950;-71
2024/02/24 11:26:10;;;;;;;;;;;;;;;30.90;48.23;99375.13;5004545;27;98947;-71
2024/02/24 11:28:37;;;;;;;;;;;;;;;30.75;47.93;99369.09;5012075;27;98487;-74
2024/02/24 11:31:03;;;;;;;;;;;;;;;31.00;47.21;99370.50;4969934;27;99400;-73
2024/02/24 11:33:40;;;;;;;;;;;;;;;31.45;46.78;99379.03;4996847;27;98395;-72
2024/02/24 11:36:09;;;;;;;;;;;;;;;32.16;45.99;99387.56;5025727;27;98280;-73
2024/02/24 11:38:36;;;;;;;;;;;;;;;32.70;45.13;99370.13;5012277;27;102978;-71
2024/02/24 11:41:03;;;;;;;;;;;;;;;33.21;44.59;99372.94;4992888;27;98645;-73
2024/02/24 11:43:31;;;;;;;;;;;;;;;33.40;44.70;99371.13;5005872;27;97974;-71
2024/02/24 11:45:59;;;;;;;;;;;;;;;33.42;45.14;99367.88;4995057;27;98001;-71
2024/02/24 11:48:25;;;;;;;;;;;;;;;33.32;44.88;99369.78;5013452;27;99257;-70
2024/02/24 11:50:53;;;;;;;;;;;;;;;32.97;45.61;99375.28;5018126;27;98560;-70
2024/02/24 11:53:20;;;;;;;;;;;;;;;32.67;45.74;99376.56;5015734;27;98499;-70
2024/02/24 11:55:47;;;;;;;;;;;;;;;32.63;46.15;99375.13;5018832;27;99625;-73
2024/02/24 11:58:17;;;;;;;;;;;;;;;32.21;46.16;99370.28;4985799;27;98906;-73
2024/02/24 12:00:45;;;;;;;;;;;;;;;31.73;47.13;99374.72;5018953;27;98746;-70
2024/02/24 12:03:13;;;;;;;;;;;;;;;31.84;46.57;99379.25;5001055;27;98852;-71
2024/02/24 12:05:42;;;;;;;;;;;;;;;31.65;46.71;99378.94;5003391;27;98269;-71
2024/02/24 12:08:13;;;;;;;;;;;;;;;31.49;46.73;99379.72;4979232;27;98214;-74
2024/02/24 12:10:40;;;;;;;;;;;;;;;31.26;46.84;99379.84;5009352;27;98381;-74
2024/02/24 12:13:09;;;;;;;;;;;;;;;31.07;47.29;99392.63;5017281;27;98444;-70
2024/02/24 12:15:48;;;;;;;;;;;;;;;30.68;47.64;99385.09;4983710;27;98244;-74
2024/02/24 12:18:14;;;;;;;;;;;;;;;30.02;47.92;99387.56;4995527;27;98052;-74
2024/02/24 12:20:42;;;;;;;;;;;;;;;29.90;47.95;99393.72;4968999;27;99108;-75
2024/02/24 12:23:10;;;;;;;;;;;;;;;29.43;48.13;99395.69;5017406;27;99643;-72
2024/02/24 12:25:39;;;;;;;;;;;;;;;28.81;48.62;99397.78;5008775;27;98396;-70
2024/02/24 12:28:09;;;;;;;;;;;;;;;28.60;48.77;99399.59;4986546;27;98572;-70
2024/02/24 12:30:40;;;;;;;;;;;;;;;28.32;48.88;99397.91;5021552;27;99139;-73
2024/02/24 12:33:10;;;;;;;;;;;;;;;27.95;49.10;99409.00;5034102;27;98992;-74
2024/02/24 12:35:37;;;;;;;;;;;;;;;27.53;49.19;99408.94;5004760;27;98400;-71
2024/02/24 12:38:05;;;;;;;;;;;;;;;27.16;49.17;99402.09;4998411;27;97974;-71
2024/02/24 12:40:36;;;;;;;;;;;;;;;26.80;49.54;99401.47;5002246;27;98222;-70
2024/02/24 12:43:07;;;;;;;;;;;;;;;26.30;49.82;99406.38;5015517;27;98171;-70
2024/02/24 12:45:34;;;;;;;;;;;;;;;25.99;49.75;99403.28;4980854;27;98846;-71
2024/02/24 12:48:01;;;;;;;;;;;;;;;25.64;49.91;99404.06;4994562;27;97993;-71